sensor_id;sensor_type;location;lat;lon;timestamp;pressure;altitude;pressure_sealevel;temperature;humidity
6435;BME280;3250;42.694;23.278;2023-06-24T00:00:45;94832.78;;;21.96;88.16
6435;BME280;3250;42.694;23.278;2023-06-24T00:03:11;94857.63;;;22.11;88.30
6435;BME280;3250;42.694;23.278;2023-06-24T00:05:42;94836.28;;;21.96;88.03
6435;BME280;3250;42.694;23.278;2023-06-24T00:08:08;94843.22;;;22.02;88.16
6435;BME280;3250;42.694;23.278;2023-06-24T00:10:33;94853.59;;;22.09;88.01
6435;BME280;3250;42.694;23.278;2023-06-24T00:12:59;94853.38;;;22.05;88.03
6435;BME280;3250;42.694;23.278;2023-06-24T00:15:28;94845.38;;;22.00;88.44
6435;BME280;3250;42.694;23.278;2023-06-24T00:17:53;94848.88;;;21.96;88.34
6435;BME280;3250;42.694;23.278;2023-06-24T00:20:19;94853.13;;;21.97;88.00
6435;BME280;3250;42.694;23.278;2023-06-24T00:22:45;94839.53;;;21.88;88.31
6435;BME280;3250;42.694;23.278;2023-06-24T00:25:14;94839.53;;;21.88;88.22
6435;BME280;3250;42.694;23.278;2023-06-24T00:27:41;94844.34;;;21.91;87.69
6435;BME280;3250;42.694;23.278;2023-06-24T00:30:07;94812.59;;;21.74;88.35
6435;BME280;3250;42.694;23.278;2023-06-24T00:32:33;94843.31;;;21.87;88.54
6435;BME280;3250;42.694;23.278;2023-06-24T00:34:58;94837.47;;;21.80;88.73
6435;BME280;3250;42.694;23.278;2023-06-24T00:37:25;94847.72;;;21.73;88.74
6435;BME280;3250;42.694;23.278;2023-06-24T00:39:50;94859.25;;;21.73;89.00
6435;BME280;3250;42.694;23.278;2023-06-24T00:42:16;94850.44;;;21.68;89.11
6435;BME280;3250;42.694;23.278;2023-06-24T00:44:42;94831.22;;;21.61;89.11
6435;BME280;3250;42.694;23.278;2023-06-24T00:47:08;94843.75;;;21.65;89.75
6435;BME280;3250;42.694;23.278;2023-06-24T00:49:33;94823.72;;;21.58;89.30
6435;BME280;3250;42.694;23.278;2023-06-24T00:51:59;94833.28;;;21.69;89.36
6435;BME280;3250;42.694;23.278;2023-06-24T00:54:26;94839.72;;;21.68;89.43
6435;BME280;3250;42.694;23.278;2023-06-24T00:56:56;94830.63;;;21.64;89.56
6435;BME280;3250;42.694;23.278;2023-06-24T00:59:22;94835.50;;;21.62;89.48
6435;BME280;3250;42.694;23.278;2023-06-24T01:01:48;94830.16;;;21.62;89.50
6435;BME280;3250;42.694;23.278;2023-06-24T01:04:14;94828.22;;;21.62;88.96
6435;BME280;3250;42.694;23.278;2023-06-24T01:06:41;94793.06;;;21.40;89.10
6435;BME280;3250;42.694;23.278;2023-06-24T01:09:08;94815.16;;;21.56;89.28
6435;BME280;3250;42.694;23.278;2023-06-24T01:11:34;94808.25;;;21.50;89.06
6435;BME280;3250;42.694;23.278;2023-06-24T01:13:59;94829.63;;;21.60;88.98
6435;BME280;3250;42.694;23.278;2023-06-24T01:19:10;94802.75;;;21.31;90.10
6435;BME280;3250;42.694;23.278;2023-06-24T01:24:58;94818.44;;;21.48;89.70
6435;BME280;3250;42.694;23.278;2023-06-24T01:30:28;94830.22;;;21.52;89.12
6435;BME280;3250;42.694;23.278;2023-06-24T01:33:07;94836.91;;;21.49;88.99
6435;BME280;3250;42.694;23.278;2023-06-24T01:35:35;94843.63;;;21.46;88.94
6435;BME280;3250;42.694;23.278;2023-06-24T01:38:09;94834.88;;;21.36;89.04
6435;BME280;3250;42.694;23.278;2023-06-24T01:40:38;94845.31;;;21.37;89.45
6435;BME280;3250;42.694;23.278;2023-06-24T01:43:09;94850.19;;;21.30;89.74
6435;BME280;3250;42.694;23.278;2023-06-24T01:45:42;94845.94;;;21.24;89.98
6435;BME280;3250;42.694;23.278;2023-06-24T01:48:15;94843.03;;;21.10;90.00
6435;BME280;3250;42.694;23.278;2023-06-24T01:50:45;94862.28;;;21.13;90.78
6435;BME280;3250;42.694;23.278;2023-06-24T01:53:13;94859.38;;;21.09;91.01
6435;BME280;3250;42.694;23.278;2023-06-24T01:55:41;94857.50;;;21.09;90.38
6435;BME280;3250;42.694;23.278;2023-06-24T01:58:09;94850.81;;;21.07;90.42
6435;BME280;3250;42.694;23.278;2023-06-24T02:00:37;94857.28;;;21.01;90.81
6435;BME280;3250;42.694;23.278;2023-06-24T02:03:04;94869.06;;;20.95;90.93
6435;BME280;3250;42.694;23.278;2023-06-24T02:05:31;94863.22;;;20.88;91.24
6435;BME280;3250;42.694;23.278;2023-06-24T02:07:58;94872.84;;;20.89;91.19
6435;BME280;3250;42.694;23.278;2023-06-24T02:10:24;94878.22;;;20.89;90.91
6435;BME280;3250;42.694;23.278;2023-06-24T02:12:51;94870.22;;;20.84;91.29
6435;BME280;3250;42.694;23.278;2023-06-24T02:15:18;94860.66;;;20.62;91.76
6435;BME280;3250;42.694;23.278;2023-06-24T02:17:45;94875.59;;;20.74;91.95
6435;BME280;3250;42.694;23.278;2023-06-24T02:20:14;94836.88;;;20.51;91.79
6435;BME280;3250;42.694;23.278;2023-06-24T02:22:41;94876.16;;;20.70;91.59
6435;BME280;3250;42.694;23.278;2023-06-24T02:25:08;94882.84;;;20.73;92.26
6435;BME280;3250;42.694;23.278;2023-06-24T02:27:35;94887.38;;;20.73;92.58
6435;BME280;3250;42.694;23.278;2023-06-24T02:30:03;94893.03;;;20.66;92.07
6435;BME280;3250;42.694;23.278;2023-06-24T02:32:29;94908.53;;;20.59;92.37
6435;BME280;3250;42.694;23.278;2023-06-24T02:34:57;94864.97;;;20.33;91.66
6435;BME280;3250;42.694;23.278;2023-06-24T02:37:23;94897.34;;;20.52;92.42
6435;BME280;3250;42.694;23.278;2023-06-24T02:39:48;94912.03;;;20.54;92.47
6435;BME280;3250;42.694;23.278;2023-06-24T02:42:14;94903.47;;;20.52;92.67
6435;BME280;3250;42.694;23.278;2023-06-24T02:44:39;94902.97;;;20.45;92.94
6435;BME280;3250;42.694;23.278;2023-06-24T02:47:09;94904.31;;;20.48;93.11
6435;BME280;3250;42.694;23.278;2023-06-24T02:49:36;94904.56;;;20.51;93.40
6435;BME280;3250;42.694;23.278;2023-06-24T02:52:03;94906.44;;;20.56;93.53
6435;BME280;3250;42.694;23.278;2023-06-24T02:54:29;94910.44;;;20.53;92.90
6435;BME280;3250;42.694;23.278;2023-06-24T02:56:55;94913.63;;;20.60;93.02
6435;BME280;3250;42.694;23.278;2023-06-24T02:59:23;94917.91;;;20.66;92.93
6435;BME280;3250;42.694;23.278;2023-06-24T03:01:50;94907.47;;;20.60;92.68
6435;BME280;3250;42.694;23.278;2023-06-24T03:04:17;94915.78;;;20.63;92.97
6435;BME280;3250;42.694;23.278;2023-06-24T03:06:43;94914.97;;;20.63;93.00
6435;BME280;3250;42.694;23.278;2023-06-24T03:09:09;94899.47;;;20.55;92.77
6435;BME280;3250;42.694;23.278;2023-06-24T03:11:42;94910.13;;;20.70;92.48
6435;BME280;3250;42.694;23.278;2023-06-24T03:14:08;94905.28;;;20.77;92.82
6435;BME280;3250;42.694;23.278;2023-06-24T03:16:33;94928.25;;;20.88;92.00
6435;BME280;3250;42.694;23.278;2023-06-24T03:18:59;94921.00;;;20.94;91.21
6435;BME280;3250;42.694;23.278;2023-06-24T03:21:25;94914.59;;;20.95;90.96
6435;BME280;3250;42.694;23.278;2023-06-24T03:23:53;94923.38;;;21.05;90.96
6435;BME280;3250;42.694;23.278;2023-06-24T03:26:19;94923.06;;;21.12;91.22
6435;BME280;3250;42.694;23.278;2023-06-24T03:28:44;94914.00;;;21.08;91.24
6435;BME280;3250;42.694;23.278;2023-06-24T03:31:10;94941.75;;;21.32;90.44
6435;BME280;3250;42.694;23.278;2023-06-24T03:33:35;94935.59;;;21.32;90.42
6435;BME280;3250;42.694;23.278;2023-06-24T03:36:01;94948.91;;;21.52;89.40
6435;BME280;3250;42.694;23.278;2023-06-24T03:38:26;94928.81;;;21.50;89.25
6435;BME280;3250;42.694;23.278;2023-06-24T03:40:53;94956.31;;;21.70;88.83
6435;BME280;3250;42.694;23.278;2023-06-24T03:43:18;94947.66;;;21.78;89.18
6435;BME280;3250;42.694;23.278;2023-06-24T03:45:44;94955.34;;;21.90;88.50
6435;BME280;3250;42.694;23.278;2023-06-24T03:48:09;94960.16;;;21.93;87.46
6435;BME280;3250;42.694;23.278;2023-06-24T03:50:35;94972.50;;;21.94;87.43
6435;BME280;3250;42.694;23.278;2023-06-24T03:53:00;94961.88;;;21.79;87.52
6435;BME280;3250;42.694;23.278;2023-06-24T03:55:26;94963.75;;;21.78;87.20
6435;BME280;3250;42.694;23.278;2023-06-24T03:57:51;94962.03;;;21.93;87.90
6435;BME280;3250;42.694;23.278;2023-06-24T04:00:16;94948.88;;;22.01;88.08
6435;BME280;3250;42.694;23.278;2023-06-24T04:02:43;94962.06;;;22.27;86.77
6435;BME280;3250;42.694;23.278;2023-06-24T04:05:10;94920.81;;;22.23;87.05
6435;BME280;3250;42.694;23.278;2023-06-24T04:07:36;94972.72;;;22.66;87.02
6435;BME280;3250;42.694;23.278;2023-06-24T04:10:05;94971.53;;;22.82;86.17
6435;BME280;3250;42.694;23.278;2023-06-24T04:12:35;94948.44;;;22.81;85.79
6435;BME280;3250;42.694;23.278;2023-06-24T04:15:02;94959.47;;;23.03;84.59
6435;BME280;3250;42.694;23.278;2023-06-24T04:17:29;94949.97;;;23.11;83.36
6435;BME280;3250;42.694;23.278;2023-06-24T04:19:55;94917.53;;;22.83;82.79
6435;BME280;3250;42.694;23.278;2023-06-24T04:22:20;94947.25;;;23.16;82.74
6435;BME280;3250;42.694;23.278;2023-06-24T04:24:46;94950.53;;;23.31;81.26
6435;BME280;3250;42.694;23.278;2023-06-24T04:27:11;94950.59;;;23.50;80.02
6435;BME280;3250;42.694;23.278;2023-06-24T04:29:36;94955.09;;;23.55;79.28
6435;BME280;3250;42.694;23.278;2023-06-24T04:32:02;94957.28;;;23.72;79.05
6435;BME280;3250;42.694;23.278;2023-06-24T04:34:27;94953.88;;;23.85;78.13
6435;BME280;3250;42.694;23.278;2023-06-24T04:36:53;94959.28;;;24.17;79.60
6435;BME280;3250;42.694;23.278;2023-06-24T04:39:21;94956.09;;;24.48;79.61
6435;BME280;3250;42.694;23.278;2023-06-24T04:41:46;94937.03;;;24.63;77.16
6435;BME280;3250;42.694;23.278;2023-06-24T04:44:12;94967.50;;;25.04;74.91
6435;BME280;3250;42.694;23.278;2023-06-24T04:46:38;94961.44;;;25.12;73.97
6435;BME280;3250;42.694;23.278;2023-06-24T04:49:05;94972.19;;;25.40;74.79
6435;BME280;3250;42.694;23.278;2023-06-24T04:51:30;94945.13;;;25.45;74.10
6435;BME280;3250;42.694;23.278;2023-06-24T04:53:56;94981.81;;;25.96;74.02
6435;BME280;3250;42.694;23.278;2023-06-24T04:56:21;94975.66;;;26.17;72.77
6435;BME280;3250;42.694;23.278;2023-06-24T04:58:47;94980.97;;;26.45;70.40
6435;BME280;3250;42.694;23.278;2023-06-24T05:01:13;94973.28;;;26.60;68.45
6435;BME280;3250;42.694;23.278;2023-06-24T05:03:39;94987.25;;;26.85;66.79
6435;BME280;3250;42.694;23.278;2023-06-24T05:06:04;94964.09;;;26.92;66.28
6435;BME280;3250;42.694;23.278;2023-06-24T05:08:29;94971.25;;;27.28;65.63
6435;BME280;3250;42.694;23.278;2023-06-24T05:10:55;94977.19;;;27.47;64.25
6435;BME280;3250;42.694;23.278;2023-06-24T05:13:20;94983.47;;;27.65;63.10
6435;BME280;3250;42.694;23.278;2023-06-24T05:15:46;94950.84;;;27.78;65.16
6435;BME280;3250;42.694;23.278;2023-06-24T05:18:11;94982.44;;;28.26;62.39
6435;BME280;3250;42.694;23.278;2023-06-24T05:20:37;94970.94;;;28.55;62.38
6435;BME280;3250;42.694;23.278;2023-06-24T05:23:02;94966.94;;;28.87;61.50
6435;BME280;3250;42.694;23.278;2023-06-24T05:25:27;94965.66;;;29.31;61.63
6435;BME280;3250;42.694;23.278;2023-06-24T05:27:53;94957.03;;;29.58;59.39
6435;BME280;3250;42.694;23.278;2023-06-24T05:30:18;94958.31;;;29.90;58.85
6435;BME280;3250;42.694;23.278;2023-06-24T05:32:44;94940.78;;;30.09;58.84
6435;BME280;3250;42.694;23.278;2023-06-24T05:35:10;94944.94;;;30.27;54.38
6435;BME280;3250;42.694;23.278;2023-06-24T05:37:35;94972.06;;;30.68;54.62
6435;BME280;3250;42.694;23.278;2023-06-24T05:40:01;94950.75;;;30.58;52.24
6435;BME280;3250;42.694;23.278;2023-06-24T05:42:27;94932.25;;;30.52;53.26
6435;BME280;3250;42.694;23.278;2023-06-24T05:44:53;94971.91;;;30.86;53.81
6435;BME280;3250;42.694;23.278;2023-06-24T05:47:18;94933.00;;;30.73;54.92
6435;BME280;3250;42.694;23.278;2023-06-24T05:49:44;94958.81;;;31.24;54.90
6435;BME280;3250;42.694;23.278;2023-06-24T05:52:11;94963.03;;;31.46;55.58
6435;BME280;3250;42.694;23.278;2023-06-24T05:54:37;94930.63;;;31.65;55.06
6435;BME280;3250;42.694;23.278;2023-06-24T05:57:02;94947.25;;;31.88;52.27
6435;BME280;3250;42.694;23.278;2023-06-24T05:59:31;94932.75;;;31.72;53.88
6435;BME280;3250;42.694;23.278;2023-06-24T06:01:56;94947.25;;;31.88;52.46
6435;BME280;3250;42.694;23.278;2023-06-24T06:04:22;94919.22;;;31.88;51.59
6435;BME280;3250;42.694;23.278;2023-06-24T06:06:47;94956.41;;;32.08;50.83
6435;BME280;3250;42.694;23.278;2023-06-24T06:09:12;94910.84;;;31.32;51.87
6435;BME280;3250;42.694;23.278;2023-06-24T06:11:38;94898.34;;;31.06;51.68
6435;BME280;3250;42.694;23.278;2023-06-24T06:14:03;94911.72;;;30.99;52.64
6435;BME280;3250;42.694;23.278;2023-06-24T06:16:29;94925.19;;;30.84;53.00
6435;BME280;3250;42.694;23.278;2023-06-24T06:18:54;94944.28;;;30.96;53.80
6435;BME280;3250;42.694;23.278;2023-06-24T06:21:19;94945.66;;;31.14;55.03
6435;BME280;3250;42.694;23.278;2023-06-24T06:23:45;94935.13;;;31.25;54.51
6435;BME280;3250;42.694;23.278;2023-06-24T06:26:10;94936.72;;;31.38;53.51
6435;BME280;3250;42.694;23.278;2023-06-24T06:28:35;94950.44;;;31.29;52.99
6435;BME280;3250;42.694;23.278;2023-06-24T06:31:01;94950.03;;;31.06;51.93
6435;BME280;3250;42.694;23.278;2023-06-24T06:33:26;94925.91;;;31.05;56.14
6435;BME280;3250;42.694;23.278;2023-06-24T06:35:52;94942.72;;;31.43;54.50
6435;BME280;3250;42.694;23.278;2023-06-24T06:38:17;94958.41;;;31.71;54.48
6435;BME280;3250;42.694;23.278;2023-06-24T06:40:42;94950.31;;;31.86;54.21
6435;BME280;3250;42.694;23.278;2023-06-24T06:43:08;94950.97;;;31.96;53.44
6435;BME280;3250;42.694;23.278;2023-06-24T06:45:33;94963.31;;;32.17;51.78
6435;BME280;3250;42.694;23.278;2023-06-24T06:47:59;94941.06;;;32.15;51.62
6435;BME280;3250;42.694;23.278;2023-06-24T06:50:24;94968.75;;;32.30;49.62
6435;BME280;3250;42.694;23.278;2023-06-24T06:52:49;94962.28;;;32.22;50.70
6435;BME280;3250;42.694;23.278;2023-06-24T06:55:15;94941.97;;;32.19;52.15
6435;BME280;3250;42.694;23.278;2023-06-24T06:57:40;94941.13;;;31.91;49.89
6435;BME280;3250;42.694;23.278;2023-06-24T07:00:06;94952.19;;;32.10;49.93
6435;BME280;3250;42.694;23.278;2023-06-24T07:02:31;94959.53;;;32.34;50.10
6435;BME280;3250;42.694;23.278;2023-06-24T07:04:57;94968.47;;;32.35;49.12
6435;BME280;3250;42.694;23.278;2023-06-24T07:07:24;94966.88;;;32.46;50.90
6435;BME280;3250;42.694;23.278;2023-06-24T07:09:49;94964.47;;;32.44;50.55
6435;BME280;3250;42.694;23.278;2023-06-24T07:12:15;94961.22;;;32.67;51.80
6435;BME280;3250;42.694;23.278;2023-06-24T07:14:42;94947.44;;;32.47;46.36
6435;BME280;3250;42.694;23.278;2023-06-24T07:17:07;94960.31;;;32.63;48.89
6435;BME280;3250;42.694;23.278;2023-06-24T07:19:33;94940.34;;;32.58;49.87
6435;BME280;3250;42.694;23.278;2023-06-24T07:21:58;94958.28;;;32.87;48.63
6435;BME280;3250;42.694;23.278;2023-06-24T07:24:24;94969.75;;;32.93;50.56
6435;BME280;3250;42.694;23.278;2023-06-24T07:26:52;94943.66;;;32.80;48.53
6435;BME280;3250;42.694;23.278;2023-06-24T07:29:17;94956.09;;;32.93;48.59
6435;BME280;3250;42.694;23.278;2023-06-24T07:31:42;94919.81;;;32.49;46.27
6435;BME280;3250;42.694;23.278;2023-06-24T07:34:08;94954.50;;;32.36;46.88
6435;BME280;3250;42.694;23.278;2023-06-24T07:36:33;94959.81;;;32.45;47.69
6435;BME280;3250;42.694;23.278;2023-06-24T07:38:59;94956.00;;;32.61;47.71
6435;BME280;3250;42.694;23.278;2023-06-24T07:41:25;94962.88;;;32.99;50.02
6435;BME280;3250;42.694;23.278;2023-06-24T07:43:50;94941.16;;;33.03;47.28
6435;BME280;3250;42.694;23.278;2023-06-24T07:46:17;94938.19;;;32.80;46.26
6435;BME280;3250;42.694;23.278;2023-06-24T07:48:43;94920.66;;;32.65;48.62
6435;BME280;3250;42.694;23.278;2023-06-24T07:51:08;94956.66;;;32.71;46.13
6435;BME280;3250;42.694;23.278;2023-06-24T07:53:34;94962.34;;;32.38;47.97
6435;BME280;3250;42.694;23.278;2023-06-24T07:55:59;94928.00;;;32.21;50.65
6435;BME280;3250;42.694;23.278;2023-06-24T07:58:25;94965.13;;;32.81;49.37
6435;BME280;3250;42.694;23.278;2023-06-24T08:00:50;94970.94;;;33.23;47.24
6435;BME280;3250;42.694;23.278;2023-06-24T08:03:15;94969.69;;;33.52;49.08
6435;BME280;3250;42.694;23.278;2023-06-24T08:05:41;94970.56;;;33.41;46.77
6435;BME280;3250;42.694;23.278;2023-06-24T08:08:07;94928.94;;;33.28;45.98
6435;BME280;3250;42.694;23.278;2023-06-24T08:10:33;94966.44;;;33.62;48.87
6435;BME280;3250;42.694;23.278;2023-06-24T08:12:58;94922.56;;;33.55;48.21
6435;BME280;3250;42.694;23.278;2023-06-24T08:15:24;94934.25;;;33.71;45.25
6435;BME280;3250;42.694;23.278;2023-06-24T08:17:53;94958.97;;;33.94;45.11
6435;BME280;3250;42.694;23.278;2023-06-24T08:20:22;94959.47;;;33.49;47.14
6435;BME280;3250;42.694;23.278;2023-06-24T08:22:47;94925.13;;;32.85;46.81
6435;BME280;3250;42.694;23.278;2023-06-24T08:25:13;94955.38;;;32.96;46.99
6435;BME280;3250;42.694;23.278;2023-06-24T08:27:38;94953.66;;;33.04;51.12
6435;BME280;3250;42.694;23.278;2023-06-24T08:30:07;94952.31;;;32.97;47.63
6435;BME280;3250;42.694;23.278;2023-06-24T08:32:33;94942.47;;;32.65;46.99
6435;BME280;3250;42.694;23.278;2023-06-24T08:34:58;94923.34;;;32.21;49.02
6435;BME280;3250;42.694;23.278;2023-06-24T08:37:24;94920.09;;;31.92;47.99
6435;BME280;3250;42.694;23.278;2023-06-24T08:39:49;94946.06;;;32.26;49.66
6435;BME280;3250;42.694;23.278;2023-06-24T08:42:15;94927.50;;;32.59;49.45
6435;BME280;3250;42.694;23.278;2023-06-24T08:44:40;94934.63;;;33.07;50.89
6435;BME280;3250;42.694;23.278;2023-06-24T08:47:06;94932.75;;;32.80;47.26
6435;BME280;3250;42.694;23.278;2023-06-24T08:49:32;94895.84;;;32.27;49.37
6435;BME280;3250;42.694;23.278;2023-06-24T08:52:04;94926.59;;;32.27;50.35
6435;BME280;3250;42.694;23.278;2023-06-24T08:54:35;94929.13;;;32.20;48.96
6435;BME280;3250;42.694;23.278;2023-06-24T08:57:04;94929.97;;;32.08;50.08
6435;BME280;3250;42.694;23.278;2023-06-24T08:59:36;94925.38;;;32.12;49.43
6435;BME280;3250;42.694;23.278;2023-06-24T09:02:02;94926.53;;;32.51;51.87
6435;BME280;3250;42.694;23.278;2023-06-24T09:04:28;94884.41;;;32.65;49.81
6435;BME280;3250;42.694;23.278;2023-06-24T09:06:53;94913.16;;;33.21;51.44
6435;BME280;3250;42.694;23.278;2023-06-24T09:09:22;94920.06;;;32.87;48.08
6435;BME280;3250;42.694;23.278;2023-06-24T09:11:55;94911.81;;;32.84;48.23
6435;BME280;3250;42.694;23.278;2023-06-24T09:14:22;94911.72;;;32.80;48.27
6435;BME280;3250;42.694;23.278;2023-06-24T09:16:54;94903.50;;;32.65;48.76
6435;BME280;3250;42.694;23.278;2023-06-24T09:19:24;94898.03;;;32.65;50.97
6435;BME280;3250;42.694;23.278;2023-06-24T09:21:50;94913.59;;;32.64;51.85
6435;BME280;3250;42.694;23.278;2023-06-24T09:24:18;94919.63;;;32.70;49.72
6435;BME280;3250;42.694;23.278;2023-06-24T09:26:44;94924.31;;;32.57;50.60
6435;BME280;3250;42.694;23.278;2023-06-24T09:29:13;94914.56;;;32.56;50.68
6435;BME280;3250;42.694;23.278;2023-06-24T09:31:49;94926.09;;;32.65;49.66
6435;BME280;3250;42.694;23.278;2023-06-24T09:34:15;94918.97;;;32.60;50.52
6435;BME280;3250;42.694;23.278;2023-06-24T09:36:45;94926.22;;;32.69;48.94
6435;BME280;3250;42.694;23.278;2023-06-24T09:39:11;94922.56;;;32.21;48.82
6435;BME280;3250;42.694;23.278;2023-06-24T09:41:40;94927.78;;;32.14;50.30
6435;BME280;3250;42.694;23.278;2023-06-24T09:44:08;94923.47;;;32.25;49.46
6435;BME280;3250;42.694;23.278;2023-06-24T09:46:36;94928.34;;;32.19;48.60
6435;BME280;3250;42.694;23.278;2023-06-24T09:49:03;94919.72;;;32.17;48.06
6435;BME280;3250;42.694;23.278;2023-06-24T09:51:28;94926.22;;;32.01;49.42
6435;BME280;3250;42.694;23.278;2023-06-24T09:53:54;94917.09;;;31.81;49.22
6435;BME280;3250;42.694;23.278;2023-06-24T09:56:22;94918.09;;;31.89;51.97
6435;BME280;3250;42.694;23.278;2023-06-24T09:58:48;94911.72;;;31.97;52.18
6435;BME280;3250;42.694;23.278;2023-06-24T10:01:14;94905.31;;;32.05;51.42
6435;BME280;3250;42.694;23.278;2023-06-24T10:03:41;94901.81;;;32.16;48.82
6435;BME280;3250;42.694;23.278;2023-06-24T10:06:08;94900.06;;;32.12;47.79
6435;BME280;3250;42.694;23.278;2023-06-24T10:08:33;94899.91;;;31.93;48.03
6435;BME280;3250;42.694;23.278;2023-06-24T10:10:59;94876.19;;;31.29;48.77
6435;BME280;3250;42.694;23.278;2023-06-24T10:13:26;94883.44;;;31.13;49.89
6435;BME280;3250;42.694;23.278;2023-06-24T10:15:52;94872.75;;;30.95;50.65
6435;BME280;3250;42.694;23.278;2023-06-24T10:18:33;94882.28;;;31.01;48.90
6435;BME280;3250;42.694;23.278;2023-06-24T10:21:00;94879.22;;;30.79;50.46
6435;BME280;3250;42.694;23.278;2023-06-24T10:26:35;94830.56;;;30.65;51.45
6435;BME280;3250;42.694;23.278;2023-06-24T10:34:26;94852.13;;;30.82;56.10
6435;BME280;3250;42.694;23.278;2023-06-24T10:37:18;94827.66;;;30.94;54.20
6435;BME280;3250;42.694;23.278;2023-06-24T10:39:54;94839.56;;;31.26;51.46
6435;BME280;3250;42.694;23.278;2023-06-24T10:42:38;94830.59;;;31.38;53.29
6435;BME280;3250;42.694;23.278;2023-06-24T10:47:39;94801.44;;;31.38;50.35
6435;BME280;3250;42.694;23.278;2023-06-24T10:50:05;94807.69;;;31.02;50.59
6435;BME280;3250;42.694;23.278;2023-06-24T10:52:31;94806.69;;;30.95;52.79
6435;BME280;3250;42.694;23.278;2023-06-24T10:54:58;94808.84;;;31.01;50.37
6435;BME280;3250;42.694;23.278;2023-06-24T10:57:25;94811.78;;;31.08;49.90
6435;BME280;3250;42.694;23.278;2023-06-24T10:59:53;94815.31;;;31.21;51.00
6435;BME280;3250;42.694;23.278;2023-06-24T11:02:20;94799.66;;;31.18;47.66
6435;BME280;3250;42.694;23.278;2023-06-24T11:04:50;94806.22;;;31.29;47.82
6435;BME280;3250;42.694;23.278;2023-06-24T11:07:21;94805.31;;;31.25;46.77
6435;BME280;3250;42.694;23.278;2023-06-24T11:09:55;94809.97;;;31.25;47.07
6435;BME280;3250;42.694;23.278;2023-06-24T11:12:25;94813.84;;;31.11;46.76
6435;BME280;3250;42.694;23.278;2023-06-24T11:14:52;94810.41;;;31.15;48.44
6435;BME280;3250;42.694;23.278;2023-06-24T11:17:20;94814.72;;;31.28;48.09
6435;BME280;3250;42.694;23.278;2023-06-24T11:19:46;94814.28;;;31.26;46.94
6435;BME280;3250;42.694;23.278;2023-06-24T11:22:11;94812.72;;;31.13;46.70
6435;BME280;3250;42.694;23.278;2023-06-24T11:24:37;94802.72;;;31.17;46.89
6435;BME280;3250;42.694;23.278;2023-06-24T11:27:05;94780.41;;;31.11;47.99
6435;BME280;3250;42.694;23.278;2023-06-24T11:29:32;94801.56;;;31.30;47.21
6435;BME280;3250;42.694;23.278;2023-06-24T11:31:58;94786.94;;;31.34;46.82
6435;BME280;3250;42.694;23.278;2023-06-24T11:34:23;94798.41;;;31.68;47.80
6435;BME280;3250;42.694;23.278;2023-06-24T11:36:49;94817.66;;;31.87;44.48
6435;BME280;3250;42.694;23.278;2023-06-24T11:41:47;94801.94;;;31.96;45.05
6435;BME280;3250;42.694;23.278;2023-06-24T11:44:12;94795.03;;;31.71;42.67
6435;BME280;3250;42.694;23.278;2023-06-24T11:46:38;94797.94;;;31.38;44.83
6435;BME280;3250;42.694;23.278;2023-06-24T11:49:07;94796.16;;;31.18;44.98
6435;BME280;3250;42.694;23.278;2023-06-24T11:51:33;94784.81;;;31.16;45.38
6435;BME280;3250;42.694;23.278;2023-06-24T11:54:01;94772.31;;;31.27;45.93
6435;BME280;3250;42.694;23.278;2023-06-24T11:56:38;94781.41;;;31.31;45.05
6435;BME280;3250;42.694;23.278;2023-06-24T11:59:04;94755.47;;;31.09;46.43
6435;BME280;3250;42.694;23.278;2023-06-24T12:01:34;94769.06;;;31.09;45.85
6435;BME280;3250;42.694;23.278;2023-06-24T12:04:13;94745.47;;;31.01;45.26
6435;BME280;3250;42.694;23.278;2023-06-24T12:06:41;94757.16;;;31.01;46.45
6435;BME280;3250;42.694;23.278;2023-06-24T12:09:08;94741.03;;;30.96;46.77
6435;BME280;3250;42.694;23.278;2023-06-24T12:11:33;94723.63;;;30.85;47.88
6435;BME280;3250;42.694;23.278;2023-06-24T12:13:59;94738.34;;;31.08;45.76
6435;BME280;3250;42.694;23.278;2023-06-24T12:16:24;94741.84;;;31.09;46.56
6435;BME280;3250;42.694;23.278;2023-06-24T12:18:51;94753.09;;;31.07;46.99
6435;BME280;3250;42.694;23.278;2023-06-24T12:21:17;94754.88;;;31.03;45.93
6435;BME280;3250;42.694;23.278;2023-06-24T12:23:42;94752.84;;;30.88;46.22
6435;BME280;3250;42.694;23.278;2023-06-24T12:26:08;94748.44;;;30.84;45.57
6435;BME280;3250;42.694;23.278;2023-06-24T12:28:33;94735.97;;;30.83;46.22
6435;BME280;3250;42.694;23.278;2023-06-24T12:30:58;94737.44;;;30.80;45.92
6435;BME280;3250;42.694;23.278;2023-06-24T12:33:24;94731.91;;;30.77;46.92
6435;BME280;3250;42.694;23.278;2023-06-24T12:35:49;94736.09;;;30.74;47.01
6435;BME280;3250;42.694;23.278;2023-06-24T12:38:15;94734.50;;;30.73;46.39
6435;BME280;3250;42.694;23.278;2023-06-24T12:40:41;94736.56;;;30.64;47.42
6435;BME280;3250;42.694;23.278;2023-06-24T12:43:06;94763.28;;;30.62;47.87
6435;BME280;3250;42.694;23.278;2023-06-24T12:45:32;94759.28;;;30.47;47.57
6435;BME280;3250;42.694;23.278;2023-06-24T12:47:57;94786.84;;;30.58;46.68
6435;BME280;3250;42.694;23.278;2023-06-24T12:50:24;94797.38;;;30.59;47.68
6435;BME280;3250;42.694;23.278;2023-06-24T12:52:49;94799.88;;;30.64;49.41
6435;BME280;3250;42.694;23.278;2023-06-24T12:55:15;94801.34;;;30.62;50.56
6435;BME280;3250;42.694;23.278;2023-06-24T12:57:40;94813.81;;;30.63;53.68
6435;BME280;3250;42.694;23.278;2023-06-24T13:00:06;94782.78;;;30.52;55.96
6435;BME280;3250;42.694;23.278;2023-06-24T13:02:32;94795.56;;;30.51;56.10
6435;BME280;3250;42.694;23.278;2023-06-24T13:04:57;94781.25;;;30.42;58.44
6435;BME280;3250;42.694;23.278;2023-06-24T13:07:23;94775.25;;;30.36;60.59
6435;BME280;3250;42.694;23.278;2023-06-24T13:09:48;94746.81;;;30.10;59.34
6435;BME280;3250;42.694;23.278;2023-06-24T13:12:14;94771.16;;;30.18;59.42
6435;BME280;3250;42.694;23.278;2023-06-24T13:14:39;94774.16;;;30.05;56.09
6435;BME280;3250;42.694;23.278;2023-06-24T13:17:05;94761.47;;;29.76;58.56
6435;BME280;3250;42.694;23.278;2023-06-24T13:19:31;94773.19;;;29.55;60.09
6435;BME280;3250;42.694;23.278;2023-06-24T13:21:58;94772.22;;;29.39;60.96
6435;BME280;3250;42.694;23.278;2023-06-24T13:24:23;94760.00;;;29.04;61.27
6435;BME280;3250;42.694;23.278;2023-06-24T13:26:50;94768.72;;;28.88;62.22
6435;BME280;3250;42.694;23.278;2023-06-24T13:29:16;94795.53;;;28.73;61.61